WETTERDATEN

GESTERN
Time Temp. Taup. r.Fe. Windrich Windstärke Windböe Druck 1h Prec. 24h Prec.
00:01 -3.6 -5 89 90 0.3 1.1 1001.2 0.0000 0.0000
00:12 -3.6 -5 89 90 0.3 1.1 1000.9 0.0000 0.0000
00:27 -3.6 -5 89 45 0.8 1.1 1000.6 0.0000 0.0000
00:36 -3.6 -5 89 68 0.8 1.4 1000.5 0.0000 0.0000
00:47 -3.6 -5 89 27 0.3 1.1 1000.1 0.0000 0.0000
00:57 -3.6 -5 89 36 0.3 1.1 1000.1 0.0000 0.0000
01:12 -3.6 -5 89 90 0.3 1.1 999.7 0.0000 0.0000
01:23 -3.6 -5 89 53 0.3 1.1 999.5 0.0000 0.0000
01:32 -3.6 -5 89 30 0.3 1.1 999.2 0.0000 0.0000
01:42 -3.7 -5.1 89 16 0.3 1.1 999 0.0000 0.0000
01:52 -3.8 -5 90 51 0.3 1.1 998.8 0.0000 0.0000
02:06 -3.9 -5.1 90 14 0.8 1.4 998.7 0.0000 0.0000
02:17 -3.9 -5.1 90 90 0.3 1.4 998.6 0.0000 0.0000
02:26 -3.8 -5 90 50 0.3 0.8 998.4 0.0000 0.0000
02:36 -3.8 -5 90 45 0.3 0.8 998.1 0.0000 0.0000
02:46 -3.8 -4.9 91 25 0.3 1.1 997.9 0.0000 0.0000
02:56 -3.8 -4.9 91 30 0.3 1.1 997.8 0.0000 0.0000
03:06 -3.7 -4.8 91 34 0.3 1.1 997.6 0.0000 0.0000
03:12 -3.7 -4.8 91 57 0.3 1.1 997.3 0.0000 0.0000
03:26 -3.7 -4.8 91 24 0.8 1.4 996.8 0.0000 0.0000
03:36 -3.8 -5 90 25 0.3 1.1 996.6 0.0000 0.0000
03:47 -4 -5.2 90 37 0.3 1.1 996.4 0.0000 0.0000
03:57 -4 -5.2 90 48 0.3 1.1 996.4 0.0000 0.0000
04:06 -4.1 -5.2 91 49 0.3 1.7 996.3 0.0000 0.0000
04:16 -4.1 -5.2 91 51 0.3 1.1 996 0.0000 0.0000
04:26 -4.1 -5.2 91 37 0.3 1.1 995.6 0.0000 0.0000
04:35 -4 -5.1 91 36 0.8 1.1 995.5 0.0000 0.0000
04:44 -4 -5.1 91 55 0.3 1.1 995.4 0.0000 0.0000
04:54 -4 -5.1 91 29 0.8 1.4 995 0.0000 0.0000
05:05 -4.2 -5.3 91 23 0.8 1.1 994.7 0.0000 0.0000
05:15 -4.2 -5.3 91 90 0.3 1.1 994.5 0.0000 0.0000
05:24 -4.3 -5.4 91 30 0.3 1.1 994.4 0.0000 0.0000
05:34 -4.4 -5.5 91 48 0.8 1.4 994.2 0.0000 0.0000
05:45 -4.5 -5.6 91 45 0.8 1.4 993.9 0.0000 0.0000
05:55 -4.5 -5.5 92 54 0.3 1.1 993.7 0.0000 0.0000
06:05 -4.5 -5.5 92 23 0.8 1.4 993.5 0.0000 0.0000
06:14 -4.5 -5.5 92 38 0.8 1.4 993.6 0.0000 0.0000
06:24 -4.5 -5.5 92 45 0.3 1.1 993.4 0.0000 0.0000
06:29 -4.5 -5.5 92 33 0.3 1.1 993.4 0.0000 0.0000
06:39 -4.5 -5.5 92 24 0.8 1.4 993.1 0.0000 0.0000
06:50 -4.5 -5.5 92 35 0.3 1.1 992.9 0.0000 0.0000
07:00 -4.6 -5.6 92 34 0.3 1.1 992.8 0.0000 0.0000
07:10 -4.8 -5.8 92 36 0.3 1.1 992.6 0.0000 0.0000
07:18 -4.9 -5.9 92 38 0.3 1.1 992.6 0.0000 0.0000
07:27 -5 -6 92 19 0.3 1.1 992.5 0.0000 0.0000
07:38 -5.1 -6.1 92 23 0.3 0.8 992.2 0.0000 0.0000
07:48 -5.3 -6.3 92 135 0.3 1.1 992.1 0.0000 0.0000
07:58 -5.4 -6.4 92 20 0.3 1.4 992 0.0000 0.0000
08:08 -5.4 -6.2 93 34 0.8 1.4 991.8 0.0000 0.0000
08:18 -5.3 -6.1 93 55 0.3 1.1 991.8 0.0000 0.0000
08:28 -5.2 -6 93 90 0.3 1.1 991.8 0.0000 0.0000
08:38 -5 -5.7 94 23 0.8 1.7 991.5 0.0000 0.0000
08:48 -4.8 -5.5 94 90 0.8 1.4 991.4 0.0000 0.0000
08:59 -4.6 -5.3 94 52 0.8 1.7 991.2 0.0000 0.0000
09:08 -4.5 -5.3 93 45 0.8 1.4 991.1 0.0000 0.0000
09:18 -4.4 -5.3 93 41 0.8 1.7 991 0.0000 0.0000
09:29 -4.2 -5.1 93 116 0.8 1.1 990.7 0.0000 0.0000
09:39 -3.6 -4.3 94 68 0.8 1.4 990.8 0.0000 0.0000
09:54 -2.9 -3.9 92 50 0.8 1.4 990.9 0.0000 0.0000
10:10 -2 -2.9 93 45 0.8 1.1 990.5 0.0000 0.0000
10:19 -1.1 -2.4 90 45 0.8 1.4 990.4 0.0000 0.0000
10:29 -0.5 -2 88 57 0.8 1.4 990.2 0.0000 0.0000
10:40 0.4 -1.5 86 0 0.8 1.7 989.9 0.0000 0.0000
11:00 0.7 -1.8 82 0 0.8 1.4 989.6 0.0000 0.0000
11:14 1.9 -1 80 281 1.1 2.5 989.4 0.0000 0.0000
11:25 2.6 -0.9 77 210 0.8 1.7 989.2 0.0000 0.0000
11:35 2.9 -1 75 315 0.8 2.2 989 0.0000 0.0000
11:45 2.5 -1.6 73 258 0.8 2.2 989 0.0000 0.0000
11:56 2.5 -1.6 73 325 1.1 3.3 988.9 0.0000 0.0000
12:06 2.6 -1.2 75 209 0.8 1.7 988.6 0.0000 0.0000
12:15 3.2 -1 73 306 1.1 2.5 988.6 0.0000 0.0000
12:26 3.6 -0.9 72 317 1.1 2.8 988.5 0.0000 0.0000
12:36 3.1 -1.6 70 322 1.1 2.2 988.3 0.0000 0.0000
12:46 2.4 -1.9 72 292 0.8 2.2 988.2 0.0000 0.0000
12:56 2 -2.1 73 307 0.3 1.4 988.1 0.0000 0.0000
13:07 1.8 -1.9 75 201 0.3 1.1 988.1 0.0000 0.0000
13:16 1.7 -2 75 187 0.8 1.4 988.1 0.0000 0.0000
13:26 1.6 -1.9 76 315 0.3 1.1 988.1 0.0000 0.0000
13:36 1.5 -2 76 270 0.3 1.1 988.1 0.0000 0.0000
13:47 1.3 -2 77 315 0.3 0.8 988.3 0.0000 0.0000
13:57 1.2 -2.1 77 168 0.3 0.8 988.2 0.0000 0.0000
14:06 1.1 -2.2 77 209 0.3 0.8 988.3 0.0000 0.0000
14:17 1.1 -2 78 324 0.8 1.7 988.5 0.0000 0.0000
14:27 1.1 -2 78 315 0.3 1.1 988.6 0.0000 0.0000
14:37 1.1 -1.9 79 172 0.3 1.1 988.5 0.0000 0.0000
14:47 0.9 -2.1 79 161 0.3 1.1 988.7 0.0000 0.0000
14:58 0.9 -2.1 79 315 0.8 1.7 989 0.0000 0.0000
15:08 1.1 -1.9 79 306 0.8 1.7 989.1 0.0000 0.0000
15:17 1.1 -1.9 79 185 0.8 1.7 989.2 0.0000 0.0000
15:33 1.1 -1.9 79 230 0.8 1.7 989.2 0.0000 0.0000
15:43 1.1 -1.9 79 315 1.1 2.5 989.4 0.0000 0.0000
15:53 1 -2 79 304 1.1 2.8 989.7 0.0000 0.0000
16:03 1 -2 79 302 0.8 2.5 990 0.0000 0.0000
16:13 0.9 -1.9 80 298 1.1 2.2 990.4 0.0000 0.0000
16:28 0.8 -1.8 81 321 0.8 2.2 991 0.0000 0.0000
16:38 0.7 -1.8 82 315 0.3 1.1 991.4 0.0000 0.0000
16:49 0.5 -1.7 84 184 0.8 1.4 991.5 0.0000 0.0000
16:59 0.3 -1.7 85 181 0.8 1.4 991.3 0.0000 0.0000
17:08 0.1 -1.7 86 326 0.8 1.4 991.1 0.0000 0.0000
17:19 -0.1 -1.6 88 310 0.3 1.4 991.2 0.0000 0.0000
17:29 -0.2 -1.6 89 209 0.3 1.1 991.4 0.0000 0.0000
17:44 -0.1 -1.4 90 319 0.3 1.4 991.5 0.0000 0.0000
17:54 -0.1 -1.2 91 239 0.3 0.8 991.6 0.0000 0.0000
18:04 -0.1 -1.2 91 177 0.3 1.1 991.7 0.0000 0.0000
18:19 -0.2 -1.2 92 270 0.3 0.8 991.8 0.0000 0.0000
18:30 -0.2 -1.2 92 164 0.3 1.1 991.9 0.0000 0.0000
18:40 -0.2 -1.2 92 0.3 0.8 992.1 0.0000 0.0000
18:50 -0.2 -1.1 93 171 0.3 0.8 992.4 0.0000 0.0000
19:00 -0.3 -1.2 93 180 0.3 0.8 992.6 0.0000 0.0000
19:10 -0.3 -1.2 93 18 0.3 0.8 992.7 0.0000 0.0000
19:20 -0.3 -1.2 93 270 0.3 0.8 992.8 0.0000 0.0000
20:15 -0.5 -1.4 93 195 0.3 0.8 993.3 0.0000 0.0000
20:26 -0.6 -1.3 94 315 0.3 0.8 993.5 0.0000 0.0000
20:36 -0.6 -1.3 94 315 0.3 0.8 993.6 0.0000 0.0000
20:46 -0.7 -1.4 94 155 0.3 1.1 993.6 0.0000 0.0000
20:57 -0.7 -1.4 94 135 0.3 1.1 993.8 0.0000 0.0000
21:06 -0.8 -1.5 94 225 0.3 0.8 994.1 0.0000 0.0000
21:16 -0.8 -1.5 94 270 0.3 0.8 993.9 0.0000 0.0000
21:26 -0.8 -1.5 94 315 0.3 0.8 994.1 0.0000 0.0000
21:37 -0.9 -1.6 94 323 0.3 0.8 994.1 0.0000 0.0000
21:47 -1 -1.7 94 315 0.3 0.8 993.9 0.0000 0.0000
21:57 -1.1 -1.8 94 0 0.3 0.8 993.9 0.0000 0.0000
22:07 -1.2 -1.9 94 315 0.3 0.8 994.2 0.0000 0.0000
22:17 -1.4 -2.1 94 225 0.3 0.8 994.3 0.0000 0.0000
22:27 -1.5 -2.2 94 150 0.3 0.8 994.6 0.0000 0.0000
22:37 -1.6 -2.3 94 185 0.3 1.1 994.7 0.0000 0.0000
22:53 -1.7 -2.3 95 171 0.3 0.8 994.9 0.0000 0.0000
23:05 -1.7 -2.3 95 135 0.3 0.8 995 0.0000 0.0000
23:12 -1.7 -2.3 95 18 0.3 0.3 995.1 0.0000 0.0000
23:27 -1.7 -2.3 95 167 0.3 1.1 995.3 0.0000 0.0000
23:37 -1.7 -2.3 95 341 0.3 0.8 995.5 0.0000 0.0000
23:47 -1.6 -2.2 95 90 0.3 0.8 995.5 0.0000 0.0000
23:57 -1.6 -2.2 95 158 0.3 0.8 995.6 0.0000 0.0000

TAGESSTATISTIK

2019-12-13
TEMPERATUR
MITTEL
-1.7
MAXIMUM
3.6
12:26
MINIMUM
-5.4
07:58
LUFTDRUCK
MITTEL
993.0
MAXIMUM
1001.2
00:01
MINIMUM
988.1
12:56
TAUPUNKT
MITTEL
-3.3
MAXIMUM
-0.9
11:25
MINIMUM
-6.4
07:58
FEUCHTIGKEIT
MITTEL
88
MAXIMUM
95
22:53
MINIMUM
70
12:36
WINDSTÄRKE
MITTEL
0.5
MAXIMUM
1.1
11:14
WINDBÖE
MITTEL
1.3
MAXIMUM
3.3
11:56
WINDRICHTUNG
VORHERRSCHENDE
NO
35.3%
N
7.5
NO
35.3
O
7.5
SO
4.5
S
12.8
SW
6.0
W
5.3
NW
20.3
NIEDERSCHLAG
REGEN STUNDE
0.0
REGEN TAG
0.0
TEMPERATUR (°C)
MINIMUM
-5.4
MAXIMUM
3.6
MITTEL
-1.7
LUFTDRUCK (hpa)
MINIMUM
988.1
MAXIMUM
1001.2
MITTEL
993.0
MESSGERÄT